sensor_id;sensor_type;location;lat;lon;timestamp;pressure;altitude;pressure_sealevel;temperature;humidity
16094;BME280;8151;47.824;12.092;2023-11-22T00:00:12;96326.88;;;8.21;88.32
16094;BME280;8151;47.824;12.092;2023-11-22T00:02:40;96329.34;;;8.23;87.81
16094;BME280;8151;47.824;12.092;2023-11-22T00:05:10;96331.84;;;8.24;88.14
16094;BME280;8151;47.824;12.092;2023-11-22T00:07:39;96329.88;;;8.26;88.47
16094;BME280;8151;47.824;12.092;2023-11-22T00:10:11;96326.44;;;8.26;88.36
16094;BME280;8151;47.824;12.092;2023-11-22T00:12:40;96329.34;;;8.23;88.24
16094;BME280;8151;47.824;12.092;2023-11-22T00:15:08;96332.16;;;8.21;88.39
16094;BME280;8151;47.824;12.092;2023-11-22T00:17:38;96333.66;;;8.24;88.60
16094;BME280;8151;47.824;12.092;2023-11-22T00:20:10;96336.13;;;8.25;88.56
16094;BME280;8151;47.824;12.092;2023-11-22T00:22:38;96340.44;;;8.26;88.43
16094;BME280;8151;47.824;12.092;2023-11-22T00:25:08;96334.16;;;8.27;88.57
16094;BME280;8151;47.824;12.092;2023-11-22T00:27:40;96331.03;;;8.24;88.74
16094;BME280;8151;47.824;12.092;2023-11-22T00:30:10;96330.50;;;8.20;88.58
16094;BME280;8151;47.824;12.092;2023-11-22T00:32:38;96337.22;;;8.15;88.71
16094;BME280;8151;47.824;12.092;2023-11-22T00:35:09;96340.28;;;8.10;88.79
16094;BME280;8151;47.824;12.092;2023-11-22T00:37:38;96343.25;;;8.07;89.17
16094;BME280;8151;47.824;12.092;2023-11-22T00:40:07;96342.44;;;8.06;89.07
16094;BME280;8151;47.824;12.092;2023-11-22T00:42:39;96341.44;;;8.07;89.31
16094;BME280;8151;47.824;12.092;2023-11-22T00:45:10;96347.53;;;8.08;89.19
16094;BME280;8151;47.824;12.092;2023-11-22T00:47:38;96352.44;;;8.03;89.30
16094;BME280;8151;47.824;12.092;2023-11-22T00:50:08;96352.97;;;8.06;89.52
16094;BME280;8151;47.824;12.092;2023-11-22T00:52:37;96351.97;;;8.07;89.63
16094;BME280;8151;47.824;12.092;2023-11-22T00:55:06;96354.91;;;8.04;89.33
16094;BME280;8151;47.824;12.092;2023-11-22T00:57:35;96354.56;;;7.99;89.66
16094;BME280;8151;47.824;12.092;2023-11-22T01:00:05;96349.28;;;7.99;89.86
16094;BME280;8151;47.824;12.092;2023-11-22T01:02:35;96360.78;;;7.98;90.04
16094;BME280;8151;47.824;12.092;2023-11-22T01:05:06;96357.88;;;8.01;90.20
16094;BME280;8151;47.824;12.092;2023-11-22T01:07:39;96357.53;;;8.04;90.12
16094;BME280;8151;47.824;12.092;2023-11-22T01:10:09;96362.66;;;8.06;90.06
16094;BME280;8151;47.824;12.092;2023-11-22T01:12:38;96361.16;;;8.03;90.16
16094;BME280;8151;47.824;12.092;2023-11-22T01:15:08;96361.47;;;8.00;89.99
16094;BME280;8151;47.824;12.092;2023-11-22T01:17:37;96364.28;;;7.99;90.36
16094;BME280;8151;47.824;12.092;2023-11-22T01:20:06;96360.78;;;7.98;90.04
16094;BME280;8151;47.824;12.092;2023-11-22T01:22:38;96358.16;;;7.98;90.32
16094;BME280;8151;47.824;12.092;2023-11-22T01:25:07;96361.94;;;7.96;90.43
16094;BME280;8151;47.824;12.092;2023-11-22T01:27:35;96355.66;;;7.97;90.60
16094;BME280;8151;47.824;12.092;2023-11-22T01:30:05;96359.50;;;8.02;90.42
16094;BME280;8151;47.824;12.092;2023-11-22T01:32:34;96361.84;;;8.05;90.30
16094;BME280;8151;47.824;12.092;2023-11-22T01:35:04;96359.41;;;8.12;90.26
16094;BME280;8151;47.824;12.092;2023-11-22T01:37:33;96363.56;;;8.15;90.00
16094;BME280;8151;47.824;12.092;2023-11-22T01:40:03;96365.22;;;8.16;90.12
16094;BME280;8151;47.824;12.092;2023-11-22T01:42:33;96360.78;;;8.16;90.12
16094;BME280;8151;47.824;12.092;2023-11-22T01:45:04;96373.59;;;8.11;89.94
16094;BME280;8151;47.824;12.092;2023-11-22T01:47:34;96367.78;;;8.07;90.21
16094;BME280;8151;47.824;12.092;2023-11-22T01:50:04;96373.72;;;8.09;90.26
16094;BME280;8151;47.824;12.092;2023-11-22T01:52:35;96375.03;;;8.05;90.51
16094;BME280;8151;47.824;12.092;2023-11-22T01:55:07;96371.84;;;8.02;90.95
16094;BME280;8151;47.824;12.092;2023-11-22T01:57:36;96376.31;;;8.01;90.70
16094;BME280;8151;47.824;12.092;2023-11-22T02:00:06;96370.88;;;8.03;90.89
16094;BME280;8151;47.824;12.092;2023-11-22T02:02:35;96376.06;;;8.13;90.82
16094;BME280;8151;47.824;12.092;2023-11-22T02:05:04;96377.09;;;8.20;90.42
16094;BME280;8151;47.824;12.092;2023-11-22T02:07:33;96382.06;;;8.23;90.38
16094;BME280;8151;47.824;12.092;2023-11-22T02:10:01;96388.50;;;8.20;90.49
16094;BME280;8151;47.824;12.092;2023-11-22T02:12:36;96383.22;;;8.20;90.49
16094;BME280;8151;47.824;12.092;2023-11-22T02:15:06;96376.94;;;8.21;90.20
16094;BME280;8151;47.824;12.092;2023-11-22T02:17:34;96381.25;;;8.22;90.32
16094;BME280;8151;47.824;12.092;2023-11-22T02:20:04;96382.06;;;8.23;90.81
16094;BME280;8151;47.824;12.092;2023-11-22T02:22:42;96377.47;;;8.25;90.32
16094;BME280;8151;47.824;12.092;2023-11-22T02:25:12;96384.41;;;8.26;90.39
16094;BME280;8151;47.824;12.092;2023-11-22T02:27:42;96380.41;;;8.22;90.17
16094;BME280;8151;47.824;12.092;2023-11-22T02:30:11;96390.75;;;8.15;90.63
16094;BME280;8151;47.824;12.092;2023-11-22T02:32:39;96380.28;;;8.05;91.04
16094;BME280;8151;47.824;12.092;2023-11-22T02:35:08;96386.09;;;7.91;91.24
16094;BME280;8151;47.824;12.092;2023-11-22T02:37:36;96389.94;;;7.79;91.34
16094;BME280;8151;47.824;12.092;2023-11-22T02:40:08;96388.13;;;7.79;91.72
16094;BME280;8151;47.824;12.092;2023-11-22T02:42:41;96385.19;;;7.82;91.48
16094;BME280;8151;47.824;12.092;2023-11-22T02:45:10;96391.00;;;7.86;91.50
16094;BME280;8151;47.824;12.092;2023-11-22T02:47:38;96395.44;;;7.85;91.63
16094;BME280;8151;47.824;12.092;2023-11-22T02:50:07;96397.91;;;7.87;91.38
16094;BME280;8151;47.824;12.092;2023-11-22T02:52:36;96402.06;;;7.89;91.60
16094;BME280;8151;47.824;12.092;2023-11-22T02:55:05;96394.00;;;7.91;91.33
16094;BME280;8151;47.824;12.092;2023-11-22T02:57:34;96407.00;;;7.93;91.61
16094;BME280;8151;47.824;12.092;2023-11-22T03:00:06;96405.22;;;7.93;91.65
16094;BME280;8151;47.824;12.092;2023-11-22T03:02:35;96408.69;;;7.94;91.44
16094;BME280;8151;47.824;12.092;2023-11-22T03:05:05;96409.34;;;7.96;91.27
16094;BME280;8151;47.824;12.092;2023-11-22T03:07:34;96409.22;;;7.97;91.61
16094;BME280;8151;47.824;12.092;2023-11-22T03:10:03;96408.75;;;8.02;91.76
16094;BME280;8151;47.824;12.092;2023-11-22T03:12:33;96408.59;;;8.03;91.58
16094;BME280;8151;47.824;12.092;2023-11-22T03:15:01;96418.53;;;8.09;91.59
16094;BME280;8151;47.824;12.092;2023-11-22T03:17:32;96419.88;;;8.14;91.42
16094;BME280;8151;47.824;12.092;2023-11-22T03:20:01;96427.09;;;8.12;90.99
16094;BME280;8151;47.824;12.092;2023-11-22T03:22:30;96427.72;;;8.05;91.01
16094;BME280;8151;47.824;12.092;2023-11-22T03:24:58;96426.50;;;8.00;90.98
16094;BME280;8151;47.824;12.092;2023-11-22T03:27:27;96437.81;;;7.92;90.37
16094;BME280;8151;47.824;12.092;2023-11-22T03:29:55;96438.13;;;7.89;90.57
16094;BME280;8151;47.824;12.092;2023-11-22T03:32:23;96435.91;;;7.84;90.29
16094;BME280;8151;47.824;12.092;2023-11-22T03:34:53;96430.09;;;7.81;90.58
16094;BME280;8151;47.824;12.092;2023-11-22T03:37:22;96438.19;;;7.79;90.27
16094;BME280;8151;47.824;12.092;2023-11-22T03:39:50;96444.41;;;7.78;89.96
16094;BME280;8151;47.824;12.092;2023-11-22T03:42:19;96449.00;;;7.76;89.92
16094;BME280;8151;47.824;12.092;2023-11-22T03:44:48;96447.78;;;7.71;89.83
16094;BME280;8151;47.824;12.092;2023-11-22T03:47:16;96448.91;;;7.68;89.88
16094;BME280;8151;47.824;12.092;2023-11-22T03:49:45;96461.25;;;7.67;89.90
16094;BME280;8151;47.824;12.092;2023-11-22T03:52:15;96459.47;;;7.68;89.73
16094;BME280;8151;47.824;12.092;2023-11-22T03:54:43;96465.69;;;7.67;89.50
16094;BME280;8151;47.824;12.092;2023-11-22T03:57:12;96474.59;;;7.66;89.63
16094;BME280;8151;47.824;12.092;2023-11-22T03:59:41;96475.53;;;7.65;89.68
16094;BME280;8151;47.824;12.092;2023-11-22T04:02:10;96491.47;;;7.63;89.14
16094;BME280;8151;47.824;12.092;2023-11-22T04:04:38;96484.31;;;7.56;88.97
16094;BME280;8151;47.824;12.092;2023-11-22T04:07:08;96490.03;;;7.51;89.20
16094;BME280;8151;47.824;12.092;2023-11-22T04:09:38;96498.50;;;7.45;89.04
16094;BME280;8151;47.824;12.092;2023-11-22T04:12:06;96503.25;;;7.41;88.72
16094;BME280;8151;47.824;12.092;2023-11-22T04:14:35;96511.28;;;7.40;88.76
16094;BME280;8151;47.824;12.092;2023-11-22T04:17:04;96516.84;;;7.37;88.51
16094;BME280;8151;47.824;12.092;2023-11-22T04:19:33;96521.97;;;7.28;88.49
16094;BME280;8151;47.824;12.092;2023-11-22T04:22:02;96527.81;;;7.22;88.50
16094;BME280;8151;47.824;12.092;2023-11-22T04:24:31;96523.53;;;7.21;88.33
16094;BME280;8151;47.824;12.092;2023-11-22T04:27:01;96532.41;;;7.20;88.17
16094;BME280;8151;47.824;12.092;2023-11-22T04:29:30;96532.66;;;7.17;88.22
16094;BME280;8151;47.824;12.092;2023-11-22T04:32:00;96536.03;;;7.19;88.00
16094;BME280;8151;47.824;12.092;2023-11-22T04:34:28;96531.72;;;7.18;87.90
16094;BME280;8151;47.824;12.092;2023-11-22T04:36:56;96536.16;;;7.18;87.66
16094;BME280;8151;47.824;12.092;2023-11-22T04:39:25;96528.84;;;7.12;87.84
16094;BME280;8151;47.824;12.092;2023-11-22T04:41:53;96535.75;;;7.13;87.91
16094;BME280;8151;47.824;12.092;2023-11-22T04:44:23;96544.63;;;7.12;87.63
16094;BME280;8151;47.824;12.092;2023-11-22T04:46:51;96542.53;;;7.05;87.57
16094;BME280;8151;47.824;12.092;2023-11-22T04:49:20;96553.06;;;6.96;87.71
16094;BME280;8151;47.824;12.092;2023-11-22T04:51:48;96555.88;;;6.94;87.88
16094;BME280;8151;47.824;12.092;2023-11-22T04:54:17;96564.28;;;6.98;87.52
16094;BME280;8151;47.824;12.092;2023-11-22T04:56:45;96564.97;;;7.00;87.34
16094;BME280;8151;47.824;12.092;2023-11-22T04:59:14;96575.66;;;6.98;87.05
16094;BME280;8151;47.824;12.092;2023-11-22T05:01:44;96578.56;;;6.95;87.25
16094;BME280;8151;47.824;12.092;2023-11-22T05:04:12;96586.31;;;6.97;86.97
16094;BME280;8151;47.824;12.092;2023-11-22T05:06:41;96588.94;;;6.97;86.59
16094;BME280;8151;47.824;12.092;2023-11-22T05:09:11;96598.78;;;6.95;86.98
16094;BME280;8151;47.824;12.092;2023-11-22T05:11:41;96606.53;;;6.96;86.59
16094;BME280;8151;47.824;12.092;2023-11-22T05:14:09;96610.13;;;6.95;86.59
16094;BME280;8151;47.824;12.092;2023-11-22T05:16:38;96618.84;;;6.96;86.59
16094;BME280;8151;47.824;12.092;2023-11-22T05:19:08;96624.25;;;6.94;86.38
16094;BME280;8151;47.824;12.092;2023-11-22T05:21:36;96631.59;;;6.90;86.80
16094;BME280;8151;47.824;12.092;2023-11-22T05:24:06;96634.50;;;6.87;86.86
16094;BME280;8151;47.824;12.092;2023-11-22T05:26:36;96630.22;;;6.86;86.67
16094;BME280;8151;47.824;12.092;2023-11-22T05:29:05;96631.72;;;6.89;86.55
16094;BME280;8151;47.824;12.092;2023-11-22T05:31:33;96635.47;;;6.86;86.63
16094;BME280;8151;47.824;12.092;2023-11-22T05:34:02;96643.19;;;6.78;86.66
16094;BME280;8151;47.824;12.092;2023-11-22T05:36:31;96653.44;;;6.62;86.47
16094;BME280;8151;47.824;12.092;2023-11-22T05:39:00;96664.50;;;6.56;86.99
16094;BME280;8151;47.824;12.092;2023-11-22T05:41:31;96673.09;;;6.58;86.79
16094;BME280;8151;47.824;12.092;2023-11-22T05:43:59;96678.75;;;6.63;86.83
16094;BME280;8151;47.824;12.092;2023-11-22T05:46:28;96676.13;;;6.63;86.73
16094;BME280;8151;47.824;12.092;2023-11-22T05:48:56;96677.09;;;6.62;86.29
16094;BME280;8151;47.824;12.092;2023-11-22T05:51:24;96670.31;;;6.59;86.32
16094;BME280;8151;47.824;12.092;2023-11-22T05:53:54;96683.31;;;6.61;86.26
16094;BME280;8151;47.824;12.092;2023-11-22T05:56:23;96691.91;;;6.63;86.12
16094;BME280;8151;47.824;12.092;2023-11-22T05:58:51;96701.47;;;6.64;85.82
16094;BME280;8151;47.824;12.092;2023-11-22T06:01:20;96693.00;;;6.60;85.69
16094;BME280;8151;47.824;12.092;2023-11-22T06:03:48;96686.34;;;6.56;85.60
16094;BME280;8151;47.824;12.092;2023-11-22T06:06:17;96699.06;;;6.51;85.62
16094;BME280;8151;47.824;12.092;2023-11-22T06:08:48;96700.19;;;6.48;85.37
16094;BME280;8151;47.824;12.092;2023-11-22T06:11:18;96705.00;;;6.43;85.63
16094;BME280;8151;47.824;12.092;2023-11-22T06:13:47;96708.03;;;6.39;85.23
16094;BME280;8151;47.824;12.092;2023-11-22T06:16:15;96714.41;;;6.36;85.44
16094;BME280;8151;47.824;12.092;2023-11-22T06:18:44;96713.72;;;6.34;85.39
16094;BME280;8151;47.824;12.092;2023-11-22T06:21:12;96716.59;;;6.31;85.37
16094;BME280;8151;47.824;12.092;2023-11-22T06:23:41;96717.53;;;6.30;85.03
16094;BME280;8151;47.824;12.092;2023-11-22T06:26:09;96720.16;;;6.30;85.07
16094;BME280;8151;47.824;12.092;2023-11-22T06:28:39;96730.69;;;6.30;85.20
16094;BME280;8151;47.824;12.092;2023-11-22T06:31:07;96736.78;;;6.30;84.81
16094;BME280;8151;47.824;12.092;2023-11-22T06:33:36;96742.41;;;6.26;84.80
16094;BME280;8151;47.824;12.092;2023-11-22T06:36:04;96746.84;;;6.25;85.22
16094;BME280;8151;47.824;12.092;2023-11-22T06:38:33;96744.66;;;6.30;84.99
16094;BME280;8151;47.824;12.092;2023-11-22T06:41:02;96746.72;;;6.27;84.67
16094;BME280;8151;47.824;12.092;2023-11-22T06:43:30;96749.03;;;6.20;84.91
16094;BME280;8151;47.824;12.092;2023-11-22T06:46:00;96752.63;;;6.19;85.37
16094;BME280;8151;47.824;12.092;2023-11-22T06:48:32;96759.25;;;6.14;85.44
16094;BME280;8151;47.824;12.092;2023-11-22T06:51:01;96762.66;;;6.04;85.31
16094;BME280;8151;47.824;12.092;2023-11-22T06:53:29;96768.19;;;6.01;85.47
16094;BME280;8151;47.824;12.092;2023-11-22T06:55:58;96772.97;;;5.96;85.69
16094;BME280;8151;47.824;12.092;2023-11-22T06:58:28;96775.97;;;5.91;85.97
16094;BME280;8151;47.824;12.092;2023-11-22T07:00:56;96776.56;;;5.95;85.77
16094;BME280;8151;47.824;12.092;2023-11-22T07:03:26;96782.88;;;5.92;86.16
16094;BME280;8151;47.824;12.092;2023-11-22T07:05:56;96787.53;;;5.89;86.40
16094;BME280;8151;47.824;12.092;2023-11-22T07:08:24;96780.38;;;5.91;86.51
16094;BME280;8151;47.824;12.092;2023-11-22T07:10:54;96784.91;;;5.89;86.27
16094;BME280;8151;47.824;12.092;2023-11-22T07:13:24;96795.22;;;5.81;86.20
16094;BME280;8151;47.824;12.092;2023-11-22T07:15:53;96798.84;;;5.80;86.14
16094;BME280;8151;47.824;12.092;2023-11-22T07:18:22;96798.69;;;5.81;86.79
16094;BME280;8151;47.824;12.092;2023-11-22T07:20:52;96800.81;;;5.87;87.19
16094;BME280;8151;47.824;12.092;2023-11-22T07:23:22;96790.75;;;5.92;86.48
16094;BME280;8151;47.824;12.092;2023-11-22T07:25:54;96795.19;;;5.92;86.58
16094;BME280;8151;47.824;12.092;2023-11-22T07:28:23;96794.47;;;5.90;86.33
16094;BME280;8151;47.824;12.092;2023-11-22T07:30:51;96800.69;;;5.89;86.97
16094;BME280;8151;47.824;12.092;2023-11-22T07:33:20;96812.16;;;5.88;86.96
16094;BME280;8151;47.824;12.092;2023-11-22T07:35:48;96816.31;;;5.90;87.19
16094;BME280;8151;47.824;12.092;2023-11-22T07:38:18;96822.06;;;5.84;86.99
16094;BME280;8151;47.824;12.092;2023-11-22T07:40:47;96817.50;;;5.65;87.21
16094;BME280;8151;47.824;12.092;2023-11-22T07:43:15;96822.06;;;5.63;87.21
16094;BME280;8151;47.824;12.092;2023-11-22T07:45:44;96819.81;;;5.59;87.54
16094;BME280;8151;47.824;12.092;2023-11-22T07:48:14;96830.44;;;5.57;86.95
16094;BME280;8151;47.824;12.092;2023-11-22T07:50:43;96829.19;;;5.40;87.03
16094;BME280;8151;47.824;12.092;2023-11-22T07:53:14;96838.38;;;5.35;87.72
16094;BME280;8151;47.824;12.092;2023-11-22T07:55:46;96826.34;;;5.32;87.68
16094;BME280;8151;47.824;12.092;2023-11-22T07:58:14;96823.72;;;5.32;87.94
16094;BME280;8151;47.824;12.092;2023-11-22T08:00:43;96822.53;;;5.36;87.22
16094;BME280;8151;47.824;12.092;2023-11-22T08:03:12;96827.97;;;5.44;87.11
16094;BME280;8151;47.824;12.092;2023-11-22T08:05:43;96834.78;;;5.47;86.64
16094;BME280;8151;47.824;12.092;2023-11-22T08:08:15;96841.09;;;5.44;86.93
16094;BME280;8151;47.824;12.092;2023-11-22T08:10:43;96855.91;;;5.45;87.13
16094;BME280;8151;47.824;12.092;2023-11-22T08:13:16;96857.84;;;5.32;87.18
16094;BME280;8151;47.824;12.092;2023-11-22T08:15:46;96866.34;;;5.13;87.60
16094;BME280;8151;47.824;12.092;2023-11-22T08:18:15;96872.19;;;5.05;87.97
16094;BME280;8151;47.824;12.092;2023-11-22T08:20:44;96884.00;;;5.11;88.36
16094;BME280;8151;47.824;12.092;2023-11-22T08:23:13;96877.31;;;5.18;87.94
16094;BME280;8151;47.824;12.092;2023-11-22T08:25:42;96897.31;;;5.19;87.49
16094;BME280;8151;47.824;12.092;2023-11-22T08:28:12;96904.25;;;5.20;87.87
16094;BME280;8151;47.824;12.092;2023-11-22T08:30:41;96906.88;;;5.20;88.09
16094;BME280;8151;47.824;12.092;2023-11-22T08:33:11;96902.22;;;5.24;87.67
16094;BME280;8151;47.824;12.092;2023-11-22T08:35:40;96914.47;;;5.35;87.41
16094;BME280;8151;47.824;12.092;2023-11-22T08:38:08;96909.00;;;5.38;87.78
16094;BME280;8151;47.824;12.092;2023-11-22T08:40:37;96902.66;;;5.40;87.91
16094;BME280;8151;47.824;12.092;2023-11-22T08:43:07;96903.75;;;5.38;87.62
16094;BME280;8151;47.824;12.092;2023-11-22T08:45:35;96902.56;;;5.30;87.55
16094;BME280;8151;47.824;12.092;2023-11-22T08:48:05;96903.16;;;5.34;87.95
16094;BME280;8151;47.824;12.092;2023-11-22T08:50:33;96910.09;;;5.35;88.02
16094;BME280;8151;47.824;12.092;2023-11-22T08:53:02;96916.97;;;5.36;88.41
16094;BME280;8151;47.824;12.092;2023-11-22T08:55:32;96930.94;;;5.37;87.72
16094;BME280;8151;47.824;12.092;2023-11-22T08:58:01;96933.06;;;5.43;88.32
16094;BME280;8151;47.824;12.092;2023-11-22T09:00:29;96934.63;;;5.45;87.92
16094;BME280;8151;47.824;12.092;2023-11-22T09:02:59;96929.59;;;5.53;87.76
16094;BME280;8151;47.824;12.092;2023-11-22T09:05:29;96927.56;;;5.57;87.73
16094;BME280;8151;47.824;12.092;2023-11-22T09:07:58;96927.66;;;5.67;87.75
16094;BME280;8151;47.824;12.092;2023-11-22T09:10:38;96928.94;;;5.72;87.65
16094;BME280;8151;47.824;12.092;2023-11-22T09:13:08;96935.72;;;5.75;87.35
16094;BME280;8151;47.824;12.092;2023-11-22T09:15:37;96944.31;;;5.77;87.27
16094;BME280;8151;47.824;12.092;2023-11-22T09:18:06;96956.84;;;5.85;86.89
16094;BME280;8151;47.824;12.092;2023-11-22T09:20:36;96963.06;;;5.84;87.30
16094;BME280;8151;47.824;12.092;2023-11-22T09:23:05;96961.38;;;5.83;86.89
16094;BME280;8151;47.824;12.092;2023-11-22T09:25:33;96962.19;;;5.83;87.23
16094;BME280;8151;47.824;12.092;2023-11-22T09:28:02;96961.72;;;5.89;87.22
16094;BME280;8151;47.824;12.092;2023-11-22T09:30:32;96957.78;;;5.95;86.62
16094;BME280;8151;47.824;12.092;2023-11-22T09:33:03;96965.66;;;5.95;86.93
16094;BME280;8151;47.824;12.092;2023-11-22T09:35:33;96972.34;;;5.99;87.05
16094;BME280;8151;47.824;12.092;2023-11-22T09:38:04;96980.44;;;6.07;86.38
16094;BME280;8151;47.824;12.092;2023-11-22T09:40:34;96984.59;;;6.10;86.18
16094;BME280;8151;47.824;12.092;2023-11-22T09:43:03;96979.94;;;6.14;86.45
16094;BME280;8151;47.824;12.092;2023-11-22T09:45:31;96998.44;;;6.12;85.91
16094;BME280;8151;47.824;12.092;2023-11-22T09:48:02;97002.88;;;6.11;86.25
16094;BME280;8151;47.824;12.092;2023-11-22T09:50:36;97005.38;;;6.13;86.08
16094;BME280;8151;47.824;12.092;2023-11-22T09:53:12;96999.16;;;6.14;86.25
16094;BME280;8151;47.824;12.092;2023-11-22T09:55:43;97002.13;;;6.21;85.84
16094;BME280;8151;47.824;12.092;2023-11-22T09:58:13;96995.66;;;6.25;85.59
16094;BME280;8151;47.824;12.092;2023-11-22T10:00:43;96995.66;;;6.25;85.51
16094;BME280;8151;47.824;12.092;2023-11-22T10:03:13;97005.47;;;6.23;85.54
16094;BME280;8151;47.824;12.092;2023-11-22T10:05:42;97005.97;;;6.17;86.26
16094;BME280;8151;47.824;12.092;2023-11-22T10:08:12;97005.13;;;6.16;85.80
16094;BME280;8151;47.824;12.092;2023-11-22T10:10:41;96995.72;;;5.91;86.06
16094;BME280;8151;47.824;12.092;2023-11-22T10:13:14;97001.13;;;5.89;86.66
16094;BME280;8151;47.824;12.092;2023-11-22T10:15:42;97009.13;;;5.99;86.38
16094;BME280;8151;47.824;12.092;2023-11-22T10:18:11;97016.13;;;6.10;85.79
16094;BME280;8151;47.824;12.092;2023-11-22T10:20:40;97010.38;;;6.16;85.81
16094;BME280;8151;47.824;12.092;2023-11-22T10:23:11;97002.00;;;6.22;85.13
16094;BME280;8151;47.824;12.092;2023-11-22T10:25:44;97011.44;;;6.25;85.62
16094;BME280;8151;47.824;12.092;2023-11-22T10:28:14;97022.38;;;6.30;85.35
16094;BME280;8151;47.824;12.092;2023-11-22T10:30:45;97022.16;;;6.33;84.97
16094;BME280;8151;47.824;12.092;2023-11-22T10:33:14;97011.63;;;6.33;84.91
16094;BME280;8151;47.824;12.092;2023-11-22T10:35:43;97020.34;;;6.34;84.67
16094;BME280;8151;47.824;12.092;2023-11-22T10:38:15;97034.06;;;6.37;85.05
16094;BME280;8151;47.824;12.092;2023-11-22T10:40:44;97028.69;;;6.39;84.52
16094;BME280;8151;47.824;12.092;2023-11-22T10:43:13;97023.44;;;6.39;84.47
16094;BME280;8151;47.824;12.092;2023-11-22T10:45:43;97026.91;;;6.39;84.05
16094;BME280;8151;47.824;12.092;2023-11-22T10:48:15;97033.47;;;6.34;84.25
16094;BME280;8151;47.824;12.092;2023-11-22T10:50:45;97034.91;;;6.38;84.67
16094;BME280;8151;47.824;12.092;2023-11-22T10:53:20;97029.41;;;6.41;84.39
16094;BME280;8151;47.824;12.092;2023-11-22T10:55:57;97035.25;;;6.44;84.34
16094;BME280;8151;47.824;12.092;2023-11-22T10:58:32;97036.19;;;6.43;83.98
16094;BME280;8151;47.824;12.092;2023-11-22T11:01:04;97052.66;;;6.45;83.97
16094;BME280;8151;47.824;12.092;2023-11-22T11:03:37;97053.53;;;6.46;84.12
16094;BME280;8151;47.824;12.092;2023-11-22T11:06:10;97054.34;;;6.46;83.83
16094;BME280;8151;47.824;12.092;2023-11-22T11:08:44;97057.81;;;6.47;84.17
16094;BME280;8151;47.824;12.092;2023-11-22T11:11:13;97051.97;;;6.43;84.09
16094;BME280;8151;47.824;12.092;2023-11-22T11:13:43;97052.13;;;6.42;84.49
16094;BME280;8151;47.824;12.092;2023-11-22T11:16:13;97059.63;;;6.46;84.43
16094;BME280;8151;47.824;12.092;2023-11-22T11:18:41;97058.28;;;6.52;84.12
16094;BME280;8151;47.824;12.092;2023-11-22T11:21:10;97056.34;;;6.54;84.08
16094;BME280;8151;47.824;12.092;2023-11-22T11:23:40;97058.00;;;6.55;83.86
16094;BME280;8151;47.824;12.092;2023-11-22T11:26:18;97042.81;;;6.59;83.95
16094;BME280;8151;47.824;12.092;2023-11-22T11:28:49;97053.69;;;6.65;83.51
16094;BME280;8151;47.824;12.092;2023-11-22T11:31:21;97060.28;;;6.60;83.40
16094;BME280;8151;47.824;12.092;2023-11-22T11:33:54;97070.31;;;6.55;83.41
16094;BME280;8151;47.824;12.092;2023-11-22T11:36:24;97074.16;;;6.50;83.56
16094;BME280;8151;47.824;12.092;2023-11-22T11:38:54;97072.88;;;6.45;83.45
16094;BME280;8151;47.824;12.092;2023-11-22T11:41:27;97077.81;;;6.38;83.44
16094;BME280;8151;47.824;12.092;2023-11-22T11:43:56;97077.22;;;6.35;83.82
16094;BME280;8151;47.824;12.092;2023-11-22T11:46:25;97078.16;;;6.34;83.61
16094;BME280;8151;47.824;12.092;2023-11-22T11:48:55;97076.63;;;6.31;83.40
16094;BME280;8151;47.824;12.092;2023-11-22T11:51:25;97068.75;;;6.31;83.37
16094;BME280;8151;47.824;12.092;2023-11-22T11:53:54;97066.13;;;6.31;83.46
16094;BME280;8151;47.824;12.092;2023-11-22T11:56:25;97065.16;;;6.32;83.73
16094;BME280;8151;47.824;12.092;2023-11-22T11:58:56;97066.22;;;6.29;83.66
16094;BME280;8151;47.824;12.092;2023-11-22T12:01:28;97063.50;;;6.31;83.56
16094;BME280;8151;47.824;12.092;2023-11-22T12:03:58;97056.19;;;6.35;83.49
16094;BME280;8151;47.824;12.092;2023-11-22T12:06:29;97050.34;;;6.31;83.26
16094;BME280;8151;47.824;12.092;2023-11-22T12:08:58;97049.63;;;6.29;83.31
16094;BME280;8151;47.824;12.092;2023-11-22T12:11:28;97046.03;;;6.30;83.59
16094;BME280;8151;47.824;12.092;2023-11-22T12:13:58;97043.41;;;6.30;83.57
16094;BME280;8151;47.824;12.092;2023-11-22T12:16:26;97034.09;;;6.26;83.18
16094;BME280;8151;47.824;12.092;2023-11-22T12:18:55;97032.91;;;6.30;83.12
16094;BME280;8151;47.824;12.092;2023-11-22T12:21:25;97041.75;;;6.29;83.17
16094;BME280;8151;47.824;12.092;2023-11-22T12:23:55;97043.91;;;6.24;82.88
16094;BME280;8151;47.824;12.092;2023-11-22T12:26:24;97038.34;;;6.17;83.18
16094;BME280;8151;47.824;12.092;2023-11-22T12:28:55;97037.50;;;6.17;83.22
16094;BME280;8151;47.824;12.092;2023-11-22T12:31:32;97038.34;;;6.17;83.09
16094;BME280;8151;47.824;12.092;2023-11-22T12:34:04;97039.03;;;6.19;83.03
16094;BME280;8151;47.824;12.092;2023-11-22T12:36:34;97038.81;;;6.22;82.80
16094;BME280;8151;47.824;12.092;2023-11-22T12:39:07;97035.19;;;6.23;82.96
16094;BME280;8151;47.824;12.092;2023-11-22T12:41:44;97036.72;;;6.26;82.36
16094;BME280;8151;47.824;12.092;2023-11-22T12:44:26;97040.47;;;6.23;82.60
16094;BME280;8151;47.824;12.092;2023-11-22T12:46:59;97048.72;;;6.19;82.31
16094;BME280;8151;47.824;12.092;2023-11-22T12:49:31;97038.44;;;6.16;82.20
16094;BME280;8151;47.824;12.092;2023-11-22T12:52:00;97041.78;;;6.18;82.25
16094;BME280;8151;47.824;12.092;2023-11-22T12:54:28;97044.19;;;6.21;82.64
16094;BME280;8151;47.824;12.092;2023-11-22T12:56:59;97044.06;;;6.22;82.25
16094;BME280;8151;47.824;12.092;2023-11-22T12:59:30;97042.97;;;6.25;82.76
16094;BME280;8151;47.824;12.092;2023-11-22T13:01:58;97041.88;;;6.27;82.68
16094;BME280;8151;47.824;12.092;2023-11-22T13:04:29;97053.91;;;6.30;82.27
16094;BME280;8151;47.824;12.092;2023-11-22T13:06:59;97052.84;;;6.33;82.18
16094;BME280;8151;47.824;12.092;2023-11-22T13:09:28;97046.03;;;6.30;82.10
16094;BME280;8151;47.824;12.092;2023-11-22T13:12:00;97051.56;;;6.27;82.09
16094;BME280;8151;47.824;12.092;2023-11-22T13:14:30;97052.25;;;6.29;82.16
16094;BME280;8151;47.824;12.092;2023-11-22T13:17:04;97065.16;;;6.32;81.98
16094;BME280;8151;47.824;12.092;2023-11-22T13:19:35;97062.28;;;6.35;81.89
16094;BME280;8151;47.824;12.092;2023-11-22T13:22:05;97067.31;;;6.27;81.83